Time;durP1;ratioP1;P1;durP2;ratioP2;P2;SDS_P1;SDS_P2;PMS_P1;PMS_P2;Temp;Humidity;BMP_temperature;BMP_pressure;BME280_temperature;BME280_humidity;BME280_pressure;Samples;Min_cycle;Max_cycle;Signal;HPM_P1;HPM_P2
2024/02/09 05:01:57;;;;;;;2.13;1.97;;;4.60;97.30;;;;;;5432357;23;20501;-89
2024/02/09 05:04:26;;;;;;;2.53;2.33;;;4.70;97.30;;;;;;5035400;28;20493;-90
2024/02/09 05:07:36;;;;;;;1.90;1.80;;;4.70;97.30;;;;;;5037306;28;20168;-94
2024/02/09 05:12:47;;;;;;;1.93;1.73;;;4.80;97.30;;;;;;5068240;22;20485;-61
2024/02/09 05:15:13;;;;;;;10.00;4.87;;;4.80;97.30;;;;;;5053464;28;20805;-63
2024/02/09 05:17:39;;;;;;;3.77;3.57;;;4.90;97.30;;;;;;5039517;28;20188;-63
2024/02/09 05:20:05;;;;;;;1.53;1.37;;;4.90;97.30;;;;;;5071223;28;20209;-63
2024/02/09 05:22:31;;;;;;;2.27;1.77;;;5.00;97.30;;;;;;5053085;28;20472;-63
2024/02/09 05:24:56;;;;;;;2.00;1.67;;;5.00;97.30;;;;;;5068519;28;20928;-61
2024/02/09 05:27:22;;;;;;;1.97;1.57;;;5.10;97.30;;;;;;5051906;28;20179;-61
2024/02/09 05:29:48;;;;;;;2.03;1.77;;;5.10;97.30;;;;;;5048437;28;20232;-62
2024/02/09 05:32:13;;;;;;;1.90;1.80;;;5.20;97.30;;;;;;5070584;28;20590;-61
2024/02/09 05:34:45;;;;;;;11.90;2.87;;;5.20;97.30;;;;;;5070523;28;20656;-62
2024/02/09 05:37:12;;;;;;;2.13;1.97;;;5.30;97.30;;;;;;5070942;28;20224;-61
2024/02/09 05:39:42;;;;;;;2.23;2.03;;;5.40;97.30;;;;;;5070731;28;20430;-61
2024/02/09 05:42:08;;;;;;;1.67;1.53;;;5.50;97.30;;;;;;5052958;28;20819;-61
2024/02/09 05:44:34;;;;;;;4.60;4.30;;;5.60;97.30;;;;;;5070440;28;20423;-62
2024/02/09 05:47:00;;;;;;;4.30;4.00;;;5.60;97.30;;;;;;5070481;28;20712;-61
2024/02/09 05:49:26;;;;;;;3.37;2.13;;;5.70;97.30;;;;;;5051202;28;20651;-61
2024/02/09 05:51:52;;;;;;;2.00;1.77;;;5.70;97.30;;;;;;5070163;28;20575;-62
2024/02/09 05:54:18;;;;;;;4.53;2.10;;;5.80;97.30;;;;;;5070921;28;20258;-61
2024/02/09 05:56:46;;;;;;;2.47;1.83;;;5.80;97.30;;;;;;5070172;28;20437;-61
2024/02/09 05:59:13;;;;;;;2.30;2.10;;;5.80;97.30;;;;;;5052817;28;20175;-62
2024/02/09 06:01:38;;;;;;;1.47;1.37;;;5.80;97.30;;;;;;5069172;28;20468;-62
2024/02/09 06:04:04;;;;;;;7.67;4.57;;;5.90;97.30;;;;;;5050918;28;20433;-62
2024/02/09 06:06:29;;;;;;;28.33;5.47;;;6.00;97.30;;;;;;5050543;28;20636;-62
2024/02/09 06:08:56;;;;;;;3.40;2.77;;;6.00;97.30;;;;;;5070170;28;20190;-62
2024/02/09 06:11:21;;;;;;;2.20;2.00;;;6.00;97.30;;;;;;5070453;28;20222;-62
2024/02/09 06:13:47;;;;;;;14.87;2.37;;;6.10;97.30;;;;;;5050327;28;20559;-62
2024/02/09 06:16:14;;;;;;;2.73;2.53;;;6.20;97.30;;;;;;5048859;28;20179;-62
2024/02/09 06:18:40;;;;;;;1.40;1.30;;;6.20;97.30;;;;;;5064954;28;20350;-61
2024/02/09 06:21:06;;;;;;;1.33;1.20;;;6.30;97.30;;;;;;5050650;28;20421;-62
2024/02/09 06:23:33;;;;;;;1.70;1.60;;;6.30;97.30;;;;;;5066873;28;20419;-63
2024/02/09 06:25:59;;;;;;;3.63;1.63;;;6.40;97.30;;;;;;5066921;28;21206;-62
2024/02/09 06:28:24;;;;;;;3.87;1.53;;;6.50;97.30;;;;;;5051724;28;20453;-62
2024/02/09 06:30:50;;;;;;;1.50;1.40;;;6.60;97.30;;;;;;5069314;28;20175;-62
2024/02/09 06:33:16;;;;;;;1.97;1.57;;;6.70;97.30;;;;;;5051857;28;20203;-62
2024/02/09 06:35:43;;;;;;;1.23;1.13;;;6.90;97.30;;;;;;5065972;28;20179;-61
2024/02/09 06:38:11;;;;;;;1.40;1.30;;;7.10;97.30;;;;;;5050854;28;21124;-62
2024/02/09 06:40:38;;;;;;;1.00;0.90;;;7.20;97.30;;;;;;5064132;28;20421;-62
2024/02/09 06:43:03;;;;;;;1.27;1.23;;;7.30;97.30;;;;;;5045937;28;20477;-61
2024/02/09 06:45:29;;;;;;;2.90;1.23;;;7.40;97.30;;;;;;5043799;28;20990;-63
2024/02/09 06:47:54;;;;;;;2.20;2.03;;;7.50;97.30;;;;;;5037527;28;20279;-63
2024/02/09 06:50:21;;;;;;;1.10;1.00;;;7.60;97.30;;;;;;5067176;28;20183;-63
2024/02/09 06:52:48;;;;;;;1.33;1.07;;;7.60;97.30;;;;;;5067547;28;20792;-62
2024/02/09 06:55:14;;;;;;;1.47;1.17;;;7.60;97.30;;;;;;5051328;28;20443;-62
2024/02/09 06:57:45;;;;;;;2.70;1.77;;;7.70;97.30;;;;;;5059436;28;20426;-63
2024/02/09 07:00:15;;;;;;;1.40;1.20;;;7.70;97.30;;;;;;5064322;28;20795;-62
2024/02/09 07:02:41;;;;;;;3.93;1.97;;;7.80;97.30;;;;;;5070925;28;20474;-63
2024/02/09 07:05:19;;;;;;;2.17;2.00;;;7.80;97.30;;;;;;5049287;28;20430;-63
2024/02/09 07:07:47;;;;;;;1.87;1.77;;;7.80;97.30;;;;;;5044089;28;20429;-63
2024/02/09 07:10:13;;;;;;;0.93;0.90;;;7.90;97.30;;;;;;5049137;28;20428;-63
2024/02/09 07:12:45;;;;;;;4.60;1.37;;;7.90;97.30;;;;;;5047389;28;20505;-62
2024/02/09 07:15:12;;;;;;;1.10;1.00;;;8.00;97.30;;;;;;5041762;28;20477;-62
2024/02/09 07:17:38;;;;;;;0.83;0.80;;;8.00;97.30;;;;;;5041925;28;20457;-63
2024/02/09 07:20:04;;;;;;;1.67;1.57;;;8.00;97.30;;;;;;5049120;28;20461;-63
2024/02/09 07:22:31;;;;;;;1.80;1.30;;;8.00;97.30;;;;;;5047492;28;20268;-63
2024/02/09 07:24:58;;;;;;;35.17;3.10;;;8.00;97.30;;;;;;5049053;28;20457;-62
2024/02/09 07:27:23;;;;;;;1.17;1.17;;;8.00;97.30;;;;;;5049146;28;20426;-62
2024/02/09 07:29:49;;;;;;;1.03;0.93;;;8.10;97.30;;;;;;5047625;28;20423;-62
2024/02/09 07:32:14;;;;;;;0.80;0.70;;;8.10;97.30;;;;;;5048930;28;20682;-62
2024/02/09 07:34:41;;;;;;;0.90;0.80;;;8.20;97.30;;;;;;5053573;28;20556;-62
2024/02/09 07:37:07;;;;;;;3.70;1.37;;;8.20;97.30;;;;;;5047588;28;20183;-62
2024/02/09 07:39:33;;;;;;;1.23;1.20;;;8.20;97.30;;;;;;5048950;28;20425;-62
2024/02/09 07:41:59;;;;;;;1.40;1.30;;;8.30;97.30;;;;;;5049100;28;20477;-62
2024/02/09 07:44:26;;;;;;;4.70;1.17;;;8.30;97.30;;;;;;5052358;28;20508;-63
2024/02/09 07:46:55;;;;;;;0.90;0.80;;;8.40;97.30;;;;;;5048456;28;20434;-62
2024/02/09 07:49:26;;;;;;;1.20;1.10;;;8.40;97.30;;;;;;5044482;28;20476;-62
2024/02/09 07:51:52;;;;;;;5.50;1.20;;;8.50;97.30;;;;;;5052679;28;20453;-63
2024/02/09 07:54:18;;;;;;;1.00;0.90;;;8.50;97.30;;;;;;5051087;28;20425;-62
2024/02/09 07:56:43;;;;;;;1.27;1.00;;;8.50;97.30;;;;;;5047988;28;20950;-62
2024/02/09 07:59:10;;;;;;;0.90;0.80;;;8.60;97.30;;;;;;5046139;28;20604;-63
2024/02/09 08:01:35;;;;;;;1.10;1.00;;;8.60;97.30;;;;;;5052978;28;20213;-62
2024/02/09 08:04:01;;;;;;;1.50;1.23;;;8.60;97.30;;;;;;5054009;28;20414;-62
2024/02/09 08:06:27;;;;;;;4.33;1.50;;;8.60;97.30;;;;;;5053743;28;20632;-61
2024/02/09 08:08:54;;;;;;;1.23;1.20;;;8.70;97.30;;;;;;5045895;28;20266;-62
2024/02/09 08:11:21;;;;;;;1.57;1.00;;;8.70;97.30;;;;;;5046913;28;20477;-63
2024/02/09 08:13:50;;;;;;;1.07;0.97;;;8.70;97.30;;;;;;5048438;28;20414;-61
2024/02/09 08:16:17;;;;;;;1.50;1.03;;;8.80;97.30;;;;;;5041462;28;20930;-62
2024/02/09 08:18:43;;;;;;;1.33;1.23;;;8.80;97.30;;;;;;5052136;28;20441;-62
2024/02/09 08:21:08;;;;;;;1.00;0.97;;;8.80;97.30;;;;;;5045499;28;20908;-62
2024/02/09 08:23:33;;;;;;;1.13;1.13;;;8.80;97.30;;;;;;5042442;28;20183;-62
2024/02/09 08:25:59;;;;;;;1.00;0.90;;;8.80;97.30;;;;;;5045296;28;20190;-62
2024/02/09 08:28:25;;;;;;;0.90;0.80;;;8.90;97.30;;;;;;5045719;28;20176;-62
2024/02/09 08:30:51;;;;;;;1.53;1.47;;;8.90;97.30;;;;;;5043906;28;20218;-63
2024/02/09 08:33:17;;;;;;;1.83;0.90;;;8.90;97.30;;;;;;5046645;28;20437;-62
2024/02/09 08:35:44;;;;;;;0.80;0.70;;;8.90;97.30;;;;;;5045712;28;20418;-62
2024/02/09 08:38:10;;;;;;;1.13;1.03;;;9.00;97.30;;;;;;5045640;28;20437;-62
2024/02/09 08:40:35;;;;;;;0.90;0.80;;;9.00;97.30;;;;;;5045321;28;20422;-62
2024/02/09 08:43:01;;;;;;;0.90;0.80;;;9.00;97.30;;;;;;5038820;28;20220;-62
2024/02/09 08:45:27;;;;;;;0.80;0.70;;;9.00;97.30;;;;;;5043293;28;20186;-61
2024/02/09 08:47:53;;;;;;;1.00;0.90;;;9.10;97.30;;;;;;5046154;28;20184;-62
2024/02/09 08:50:18;;;;;;;0.80;0.70;;;9.10;97.30;;;;;;5046765;28;20419;-63
2024/02/09 08:52:44;;;;;;;0.83;0.73;;;9.10;97.30;;;;;;5045119;28;20208;-62
2024/02/09 08:55:10;;;;;;;0.90;0.80;;;9.20;97.30;;;;;;5047393;28;21434;-62
2024/02/09 08:57:35;;;;;;;0.90;0.80;;;9.20;97.30;;;;;;5051345;28;20794;-62
2024/02/09 09:00:01;;;;;;;0.97;0.87;;;9.20;97.30;;;;;;5045466;28;20184;-62
2024/02/09 09:02:29;;;;;;;1.50;1.40;;;9.20;97.30;;;;;;5043049;28;20215;-62
2024/02/09 09:04:54;;;;;;;1.13;1.03;;;9.20;97.30;;;;;;5035971;28;20499;-62
2024/02/09 09:07:20;;;;;;;0.80;0.80;;;9.30;97.30;;;;;;5041581;28;20422;-62
2024/02/09 09:09:45;;;;;;;0.93;0.83;;;9.30;97.30;;;;;;5046798;28;20191;-62
2024/02/09 09:12:11;;;;;;;0.90;0.80;;;9.30;97.30;;;;;;5050310;28;21009;-62
2024/02/09 09:14:36;;;;;;;0.90;0.80;;;9.30;97.30;;;;;;5048722;28;20175;-62
2024/02/09 09:17:02;;;;;;;0.90;0.80;;;9.40;97.30;;;;;;5055512;28;20176;-62
2024/02/09 09:19:28;;;;;;;1.40;1.30;;;9.40;97.30;;;;;;5060428;28;20678;-62
2024/02/09 09:21:54;;;;;;;2.30;1.60;;;9.40;97.30;;;;;;5047806;28;20474;-62
2024/02/09 09:24:20;;;;;;;0.80;0.70;;;9.40;97.30;;;;;;5062918;28;20175;-62
2024/02/09 09:26:46;;;;;;;2.40;0.70;;;9.50;97.30;;;;;;5054624;28;20810;-62
2024/02/09 09:29:12;;;;;;;0.90;0.80;;;9.50;97.30;;;;;;5044704;28;20207;-62
2024/02/09 09:31:38;;;;;;;0.90;0.80;;;9.60;97.30;;;;;;5059995;28;20739;-62
2024/02/09 09:34:04;;;;;;;0.90;0.80;;;9.60;97.30;;;;;;5059626;28;20426;-62
2024/02/09 09:36:31;;;;;;;0.90;0.80;;;9.60;97.30;;;;;;5063015;28;20678;-62
2024/02/09 09:38:58;;;;;;;0.60;0.60;;;9.70;97.30;;;;;;5045407;28;20184;-62
2024/02/09 09:41:26;;;;;;;1.10;1.00;;;9.70;97.30;;;;;;5063391;28;20425;-61
2024/02/09 09:43:52;;;;;;;1.53;1.10;;;9.80;97.30;;;;;;5063462;28;20917;-63
2024/02/09 09:46:21;;;;;;;1.17;0.90;;;9.90;97.30;;;;;;5062086;28;20443;-62
2024/02/09 09:48:48;;;;;;;1.00;0.90;;;9.90;97.30;;;;;;5046430;28;20183;-62
2024/02/09 09:51:16;;;;;;;0.80;0.70;;;9.90;97.30;;;;;;5048532;28;20438;-62
2024/02/09 09:53:47;;;;;;;0.60;0.60;;;10.00;97.30;;;;;;5042660;28;20417;-62
2024/02/09 09:56:14;;;;;;;0.80;0.70;;;10.00;97.30;;;;;;5044384;28;20484;-64
2024/02/09 09:58:40;;;;;;;1.40;1.00;;;10.00;97.30;;;;;;5047088;28;20845;-63
2024/02/09 10:01:08;;;;;;;0.80;0.70;;;10.00;97.30;;;;;;5062353;28;20422;-63
2024/02/09 10:03:38;;;;;;;1.00;0.90;;;10.00;97.30;;;;;;5070200;28;20534;-63
2024/02/09 10:06:04;;;;;;;1.00;0.90;;;10.00;97.30;;;;;;5062583;28;20501;-62
2024/02/09 10:08:31;;;;;;;0.80;0.70;;;10.00;97.30;;;;;;5048962;28;20743;-63
2024/02/09 10:10:57;;;;;;;0.73;0.67;;;10.10;97.30;;;;;;5057108;28;20466;-63
2024/02/09 10:13:24;;;;;;;1.43;1.07;;;10.10;97.30;;;;;;5061806;28;20449;-63
2024/02/09 10:15:55;;;;;;;2.50;1.23;;;10.10;97.30;;;;;;5040833;28;21004;-63
2024/02/09 10:18:21;;;;;;;1.17;1.07;;;10.10;97.30;;;;;;5065877;28;20479;-62
2024/02/09 10:20:47;;;;;;;1.07;0.90;;;10.10;97.30;;;;;;5059361;28;20910;-62
2024/02/09 10:23:13;;;;;;;0.87;0.77;;;10.10;97.30;;;;;;5060417;28;20890;-62
2024/02/09 10:25:41;;;;;;;2.30;1.00;;;10.20;97.30;;;;;;5045474;28;20483;-63
2024/02/09 10:28:07;;;;;;;0.80;0.70;;;10.20;97.30;;;;;;5067407;28;20495;-63
2024/02/09 10:30:35;;;;;;;1.40;1.30;;;10.20;97.30;;;;;;5068708;28;20932;-64
2024/02/09 10:33:01;;;;;;;0.60;0.60;;;10.20;97.30;;;;;;5060720;28;20499;-62
2024/02/09 10:35:27;;;;;;;0.80;0.70;;;10.20;97.30;;;;;;5068748;28;20425;-63
2024/02/09 10:37:53;;;;;;;1.50;1.40;;;10.30;97.30;;;;;;5061874;28;20190;-63
2024/02/09 10:40:20;;;;;;;5.47;1.10;;;10.30;97.30;;;;;;5064592;28;20418;-62
2024/02/09 10:42:47;;;;;;;1.00;0.90;;;10.40;97.30;;;;;;5062667;28;20207;-65
2024/02/09 10:45:12;;;;;;;0.87;0.83;;;10.50;97.30;;;;;;5049658;28;20429;-63
2024/02/09 10:47:39;;;;;;;0.80;0.70;;;10.70;97.30;;;;;;5064112;28;20422;-63
2024/02/09 10:50:06;;;;;;;0.97;0.87;;;10.80;97.30;;;;;;5046515;28;20666;-62
2024/02/09 10:52:37;;;;;;;0.90;0.90;;;10.80;97.30;;;;;;5054701;28;20449;-62
2024/02/09 10:55:06;;;;;;;1.00;0.90;;;11.00;97.30;;;;;;5040001;28;20509;-63
2024/02/09 10:57:34;;;;;;;2.07;1.33;;;11.10;97.30;;;;;;5067948;28;20421;-62
2024/02/09 11:00:00;;;;;;;2.10;0.80;;;11.20;97.30;;;;;;5058853;28;20430;-62
2024/02/09 11:02:29;;;;;;;0.80;0.70;;;11.30;97.30;;;;;;5048057;28;20560;-63
2024/02/09 11:04:56;;;;;;;1.03;0.93;;;11.40;97.30;;;;;;5060584;28;20412;-63
2024/02/09 11:07:23;;;;;;;1.07;0.80;;;11.50;97.30;;;;;;5064106;28;20413;-63
2024/02/09 11:09:49;;;;;;;0.70;0.70;;;11.50;97.30;;;;;;5056799;28;20425;-62
2024/02/09 11:12:19;;;;;;;0.80;0.70;;;11.50;97.30;;;;;;5046099;28;20481;-63
2024/02/09 11:15:12;;;;;;;0.60;0.60;;;11.60;97.30;;;;;;5048943;28;20195;-63
2024/02/09 11:17:51;;;;;;;0.87;0.77;;;11.60;97.30;;;;;;5039052;28;20573;-62
2024/02/09 11:20:17;;;;;;;0.90;0.80;;;11.70;97.30;;;;;;5046000;28;20909;-63
2024/02/09 11:22:47;;;;;;;0.80;0.70;;;11.80;97.30;;;;;;5046878;28;20501;-62
2024/02/09 11:25:15;;;;;;;1.33;1.30;;;11.80;97.30;;;;;;5047594;28;20937;-62
2024/02/09 11:27:50;;;;;;;1.00;0.90;;;11.90;97.30;;;;;;5046592;28;20442;-62
2024/02/09 11:30:17;;;;;;;0.90;0.80;;;12.00;97.30;;;;;;5046934;28;20456;-62
2024/02/09 11:32:48;;;;;;;1.20;1.10;;;12.10;97.30;;;;;;5047161;28;20510;-63
2024/02/09 11:35:15;;;;;;;1.40;1.30;;;12.10;97.30;;;;;;5047034;28;20866;-62
2024/02/09 11:37:49;;;;;;;0.80;0.70;;;12.20;97.30;;;;;;5042708;28;20462;-63
2024/02/09 11:40:16;;;;;;;1.03;1.03;;;12.20;97.30;;;;;;5050186;28;20953;-62
2024/02/09 11:42:42;;;;;;;0.90;0.80;;;12.30;97.30;;;;;;5046691;28;20473;-64
2024/02/09 11:45:11;;;;;;;3.67;1.17;;;12.30;97.30;;;;;;5048158;28;20445;-62
2024/02/09 11:47:40;;;;;;;1.07;0.97;;;12.30;97.30;;;;;;5046068;28;20238;-63
2024/02/09 11:50:19;;;;;;;12.00;2.53;;;12.40;97.30;;;;;;5040807;28;21059;-63
2024/02/09 11:52:44;;;;;;;0.83;0.73;;;12.50;97.30;;;;;;5047023;28;20457;-62
2024/02/09 11:55:10;;;;;;;1.57;1.00;;;12.60;97.30;;;;;;5048089;28;20426;-63
2024/02/09 11:57:38;;;;;;;1.00;0.90;;;12.60;97.30;;;;;;5047565;28;20670;-63
2024/02/09 12:00:06;;;;;;;0.80;0.70;;;12.60;97.30;;;;;;5040711;28;20184;-63
2024/02/09 12:02:32;;;;;;;1.00;0.90;;;12.60;97.30;;;;;;5043019;28;20884;-63
2024/02/09 12:04:59;;;;;;;1.87;1.60;;;12.70;97.30;;;;;;5043742;28;20966;-63
2024/02/09 12:07:25;;;;;;;1.00;0.90;;;12.70;97.30;;;;;;5047377;28;20537;-64
2024/02/09 12:09:51;;;;;;;0.90;0.80;;;12.80;97.30;;;;;;5047725;28;20411;-64
2024/02/09 12:12:21;;;;;;;1.30;1.20;;;12.80;97.30;;;;;;5046467;28;20469;-65
2024/02/09 12:14:47;;;;;;;0.90;0.80;;;12.90;97.30;;;;;;5048246;28;20783;-64
2024/02/09 12:17:12;;;;;;;0.90;0.80;;;13.00;97.30;;;;;;5047961;28;20422;-66
2024/02/09 12:19:39;;;;;;;1.87;1.77;;;13.10;97.30;;;;;;5045827;28;20671;-63
2024/02/09 12:22:05;;;;;;;1.33;1.10;;;13.10;97.30;;;;;;5046601;28;20314;-63
2024/02/09 12:24:31;;;;;;;0.80;0.70;;;13.00;97.30;;;;;;5043783;28;20437;-64
2024/02/09 12:26:57;;;;;;;1.70;1.30;;;13.00;97.30;;;;;;5046438;28;20425;-64
2024/02/09 12:29:25;;;;;;;0.83;0.80;;;13.00;97.30;;;;;;5045780;28;20183;-63
2024/02/09 12:31:50;;;;;;;1.10;1.00;;;13.00;97.30;;;;;;5047580;28;20204;-63
2024/02/09 12:34:16;;;;;;;1.10;1.00;;;12.90;97.30;;;;;;5047344;28;20771;-64
2024/02/09 12:36:55;;;;;;;1.00;0.90;;;12.90;97.30;;;;;;5046718;28;20168;-64
2024/02/09 12:39:22;;;;;;;1.30;1.20;;;12.90;97.30;;;;;;5039207;28;20506;-64
2024/02/09 12:42:02;;;;;;;1.93;1.60;;;13.00;97.30;;;;;;5041536;28;20541;-64
2024/02/09 12:44:30;;;;;;;2.50;2.30;;;13.00;97.30;;;;;;5036902;28;20976;-65
2024/02/09 12:47:02;;;;;;;0.90;0.80;;;13.00;97.30;;;;;;5041163;28;20438;-62
2024/02/09 12:49:28;;;;;;;1.30;1.00;;;13.00;97.30;;;;;;5038866;28;20429;-63
2024/02/09 12:51:54;;;;;;;1.33;1.17;;;13.10;97.30;;;;;;5041618;28;20547;-64
2024/02/09 12:54:20;;;;;;;2.13;1.83;;;13.20;97.30;;;;;;5039375;28;20942;-63
2024/02/09 12:56:45;;;;;;;3.73;2.10;;;13.20;97.30;;;;;;5047015;23;20327;-85
2024/02/09 12:59:11;;;;;;;2.67;2.10;;;13.30;97.30;;;;;;5038553;28;20188;-87
2024/02/09 13:01:36;;;;;;;1.80;1.27;;;13.40;97.30;;;;;;5042074;28;20180;-87
2024/02/09 13:04:02;;;;;;;2.07;1.93;;;13.40;97.30;;;;;;5038203;28;20215;-88
2024/02/09 13:06:28;;;;;;;2.30;1.23;;;13.50;97.30;;;;;;5045302;28;20708;-87
2024/02/09 13:08:56;;;;;;;2.80;2.60;;;13.70;97.30;;;;;;5050403;28;20660;-87
2024/02/09 13:11:23;;;;;;;1.47;1.40;;;14.00;97.30;;;;;;5050328;28;20560;-87
2024/02/09 13:13:49;;;;;;;0.60;0.60;;;14.30;97.30;;;;;;5056223;28;20418;-87
2024/02/09 13:16:14;;;;;;;1.13;1.03;;;14.70;97.30;;;;;;5052412;28;20445;-87
2024/02/09 13:18:40;;;;;;;1.00;0.97;;;14.90;97.30;;;;;;5050630;28;20549;-87
2024/02/09 13:21:05;;;;;;;1.00;0.93;;;15.00;97.30;;;;;;5052383;28;20283;-87
2024/02/09 13:23:31;;;;;;;1.30;1.20;;;14.90;97.30;;;;;;5054812;28;20235;-88
2024/02/09 13:25:58;;;;;;;1.20;1.10;;;15.00;97.30;;;;;;5053379;28;20200;-87
2024/02/09 13:28:24;;;;;;;1.40;1.30;;;14.80;97.30;;;;;;5052026;28;20191;-87
2024/02/09 13:30:50;;;;;;;1.03;1.03;;;14.70;97.30;;;;;;5050974;28;20426;-87
2024/02/09 13:33:17;;;;;;;1.20;1.10;;;14.60;97.30;;;;;;5052523;28;20706;-87
2024/02/09 13:35:43;;;;;;;1.10;1.00;;;14.50;97.30;;;;;;5051935;28;20438;-87
2024/02/09 13:38:08;;;;;;;1.33;1.20;;;14.40;97.30;;;;;;5052120;28;20512;-87
2024/02/09 13:40:34;;;;;;;1.07;0.97;;;14.30;97.30;;;;;;5054665;28;20183;-87
2024/02/09 13:43:00;;;;;;;1.90;1.23;;;14.20;97.30;;;;;;5051848;28;20230;-87
2024/02/09 13:45:26;;;;;;;1.37;1.27;;;14.10;97.30;;;;;;5049037;28;20208;-87
2024/02/09 13:47:52;;;;;;;4.30;2.27;;;13.90;97.30;;;;;;5052193;28;20426;-87
2024/02/09 13:50:22;;;;;;;0.93;0.83;;;13.80;97.30;;;;;;5054279;28;20601;-86
2024/02/09 13:52:47;;;;;;;2.60;1.93;;;13.70;97.30;;;;;;5052848;28;20434;-87
2024/02/09 13:55:13;;;;;;;1.20;1.10;;;13.70;97.30;;;;;;5051121;28;21077;-87
2024/02/09 13:57:47;;;;;;;1.23;1.13;;;13.70;97.30;;;;;;5055560;28;20183;-87
2024/02/09 14:00:16;;;;;;;3.37;2.73;;;13.60;97.30;;;;;;5056815;28;20285;-87
2024/02/09 14:02:41;;;;;;;2.27;2.07;;;13.60;97.30;;;;;;5071557;28;20457;-87
2024/02/09 14:05:08;;;;;;;0.97;0.87;;;13.60;97.30;;;;;;5058945;28;20491;-87
2024/02/09 14:07:38;;;;;;;1.67;1.57;;;13.60;97.30;;;;;;5061013;28;20182;-88
2024/02/09 14:10:06;;;;;;;1.20;1.10;;;13.70;97.30;;;;;;5069531;28;20947;-87
2024/02/09 14:12:32;;;;;;;2.27;1.53;;;13.80;97.30;;;;;;5054049;28;20437;-86
2024/02/09 14:14:57;;;;;;;1.27;1.27;;;13.90;97.30;;;;;;5054298;28;20798;-87
2024/02/09 14:17:23;;;;;;;1.63;1.30;;;14.00;97.30;;;;;;5053254;28;20180;-85
2024/02/09 14:19:48;;;;;;;1.13;1.10;;;14.30;97.30;;;;;;5074825;28;20187;-87
2024/02/09 14:22:14;;;;;;;1.60;1.50;;;14.40;97.30;;;;;;5057600;28;20206;-86
2024/02/09 14:24:39;;;;;;;1.10;1.00;;;14.40;97.30;;;;;;5055418;28;20183;-86
2024/02/09 14:27:05;;;;;;;1.50;1.40;;;14.40;97.30;;;;;;5062507;28;20241;-87
2024/02/09 14:29:31;;;;;;;1.20;1.10;;;14.40;97.30;;;;;;5061762;28;20202;-87
2024/02/09 14:31:57;;;;;;;14.73;1.40;;;14.30;97.30;;;;;;5054681;28;20211;-87
2024/02/09 14:34:23;;;;;;;1.27;1.17;;;14.10;97.30;;;;;;5071467;28;20663;-86
2024/02/09 14:36:49;;;;;;;1.30;1.20;;;14.00;97.30;;;;;;5060874;28;20448;-88
2024/02/09 14:39:14;;;;;;;1.00;0.90;;;14.00;97.30;;;;;;5046041;28;20183;-87
2024/02/09 14:41:40;;;;;;;3.80;1.40;;;14.00;97.30;;;;;;5054459;28;20187;-87
2024/02/09 14:44:06;;;;;;;1.50;1.10;;;13.90;97.30;;;;;;5060398;28;20174;-88
2024/02/09 14:46:31;;;;;;;1.90;1.80;;;13.90;97.30;;;;;;5055082;28;20248;-87
2024/02/09 14:48:57;;;;;;;1.10;1.00;;;13.90;97.30;;;;;;5053950;28;20422;-87
2024/02/09 14:51:22;;;;;;;1.43;1.33;;;13.80;97.30;;;;;;5053319;28;20221;-87
2024/02/09 14:53:49;;;;;;;1.17;1.07;;;13.80;97.30;;;;;;5053307;28;20171;-88
2024/02/09 14:56:16;;;;;;;1.00;0.90;;;13.80;97.30;;;;;;5044824;28;20231;-88
2024/02/09 14:58:42;;;;;;;1.10;1.00;;;13.70;97.30;;;;;;5046256;28;20737;-87
2024/02/09 15:01:08;;;;;;;2.30;1.10;;;13.70;97.30;;;;;;5032348;28;20564;-88
2024/02/09 15:03:37;;;;;;;1.13;0.90;;;13.70;97.30;;;;;;5034006;28;20200;-87
2024/02/09 15:06:10;;;;;;;1.10;1.00;;;13.60;97.30;;;;;;5037918;28;20207;-87
2024/02/09 15:08:38;;;;;;;4.77;1.73;;;13.60;97.30;;;;;;5051850;28;20457;-88
2024/02/09 15:11:05;;;;;;;1.87;1.50;;;13.60;97.30;;;;;;5035699;28;20463;-88
2024/02/09 15:13:30;;;;;;;2.90;2.03;;;13.60;97.30;;;;;;5033131;28;20418;-87
2024/02/09 15:15:56;;;;;;;0.90;0.80;;;13.50;97.30;;;;;;5036554;28;20438;-88
2024/02/09 15:18:21;;;;;;;1.30;1.20;;;13.50;97.30;;;;;;5033364;28;20180;-87
2024/02/09 15:20:48;;;;;;;1.10;1.00;;;13.40;97.30;;;;;;5033182;28;20180;-87
2024/02/09 15:23:13;;;;;;;3.50;1.97;;;13.40;97.30;;;;;;5032046;28;20200;-87
2024/02/09 15:25:40;;;;;;;3.13;1.37;;;13.40;97.30;;;;;;5035055;28;21050;-87
2024/02/09 15:28:06;;;;;;;1.17;1.07;;;13.40;97.30;;;;;;5031900;28;20218;-87
2024/02/09 15:30:31;;;;;;;1.50;1.40;;;13.30;97.30;;;;;;5032671;28;20999;-87
2024/02/09 15:32:57;;;;;;;1.10;1.00;;;13.30;97.30;;;;;;5037481;28;20876;-87
2024/02/09 15:35:23;;;;;;;2.00;1.90;;;13.20;97.30;;;;;;5033486;28;20230;-87
2024/02/09 15:37:48;;;;;;;1.20;1.10;;;13.20;97.30;;;;;;5034465;28;20176;-87
2024/02/09 15:40:14;;;;;;;2.00;1.57;;;13.20;97.30;;;;;;5031933;28;20180;-87
2024/02/09 15:42:40;;;;;;;2.73;1.50;;;13.10;97.30;;;;;;5030082;28;20204;-88
2024/02/09 15:45:07;;;;;;;1.23;1.13;;;13.10;97.30;;;;;;5035425;28;20230;-88
2024/02/09 15:47:32;;;;;;;1.80;1.20;;;13.10;97.30;;;;;;5033203;28;20418;-87
2024/02/09 15:49:58;;;;;;;0.90;0.80;;;13.10;97.30;;;;;;5034416;28;20900;-88
2024/02/09 15:52:23;;;;;;;1.27;1.17;;;13.10;97.30;;;;;;5035872;28;20187;-88
2024/02/09 15:54:52;;;;;;;5.30;1.80;;;13.10;97.30;;;;;;5042442;28;20318;-86
2024/02/09 15:57:18;;;;;;;1.20;1.10;;;13.00;97.30;;;;;;5054160;28;20224;-89
2024/02/09 15:59:43;;;;;;;1.30;1.23;;;13.00;97.30;;;;;;5049561;28;20576;-88
2024/02/09 16:02:09;;;;;;;6.50;1.63;;;13.00;97.30;;;;;;5064481;28;20195;-87
2024/02/09 16:04:34;;;;;;;1.93;1.83;;;13.00;97.30;;;;;;5050538;28;20790;-89
2024/02/09 16:07:00;;;;;;;1.07;0.97;;;12.90;97.30;;;;;;5050275;28;20657;-89
2024/02/09 16:09:28;;;;;;;1.10;1.00;;;12.90;97.30;;;;;;5051727;28;20175;-87
2024/02/09 16:11:53;;;;;;;1.10;1.03;;;12.90;97.30;;;;;;5049724;28;20271;-88
2024/02/09 16:14:19;;;;;;;1.60;1.50;;;12.80;97.30;;;;;;5051324;28;20525;-88
2024/02/09 16:16:45;;;;;;;1.03;0.90;;;12.80;97.30;;;;;;5053004;28;20664;-87
2024/02/09 16:19:10;;;;;;;1.83;1.57;;;12.70;97.30;;;;;;5057407;28;20176;-88
2024/02/09 16:21:36;;;;;;;1.30;1.10;;;12.70;97.30;;;;;;5071123;28;20184;-87
2024/02/09 16:24:04;;;;;;;13.63;1.63;;;12.70;97.30;;;;;;5053284;28;20606;-88
2024/02/09 16:26:30;;;;;;;1.20;1.10;;;12.70;97.30;;;;;;5049857;28;20211;-87
2024/02/09 16:28:56;;;;;;;1.90;1.30;;;12.60;97.30;;;;;;5049027;28;20410;-88
2024/02/09 16:31:23;;;;;;;1.40;1.30;;;12.60;97.30;;;;;;5049633;28;20418;-88
2024/02/09 16:33:50;;;;;;;5.13;2.10;;;12.60;97.30;;;;;;5048544;28;20979;-88
2024/02/09 16:36:21;;;;;;;2.10;1.10;;;12.60;97.30;;;;;;5049521;28;20438;-87
2024/02/09 16:38:50;;;;;;;1.50;1.40;;;12.60;97.30;;;;;;5048280;28;20422;-87
2024/02/09 16:41:17;;;;;;;1.20;1.00;;;12.50;97.30;;;;;;5050079;28;20441;-88
2024/02/09 16:43:42;;;;;;;3.17;2.50;;;12.50;97.30;;;;;;5047273;28;20462;-87
2024/02/09 16:46:08;;;;;;;2.53;2.33;;;12.50;97.30;;;;;;5056468;28;20829;-87
2024/02/09 16:48:34;;;;;;;1.20;1.10;;;12.50;97.30;;;;;;5053464;28;20234;-86
2024/02/09 16:50:59;;;;;;;1.17;1.07;;;12.50;97.30;;;;;;5053006;28;20698;-87
2024/02/09 16:53:26;;;;;;;1.10;1.00;;;12.50;97.30;;;;;;5051451;28;20179;-88
2024/02/09 16:55:52;;;;;;;1.27;1.17;;;12.50;97.30;;;;;;5052257;28;20582;-87
2024/02/09 16:58:19;;;;;;;1.20;1.10;;;12.40;97.30;;;;;;5051991;28;20425;-88
2024/02/09 17:00:45;;;;;;;1.47;1.30;;;12.30;97.30;;;;;;5053081;28;20187;-87
2024/02/09 17:03:17;;;;;;;1.23;1.10;;;12.30;97.30;;;;;;5053210;28;20544;-87
2024/02/09 17:05:43;;;;;;;1.10;1.00;;;12.20;97.30;;;;;;5053542;28;20434;-88
2024/02/09 17:08:08;;;;;;;1.10;1.00;;;12.20;97.30;;;;;;5054407;28;21085;-87
2024/02/09 17:10:35;;;;;;;1.77;1.47;;;12.20;97.30;;;;;;5053265;28;20449;-88
2024/02/09 17:13:01;;;;;;;5.07;1.77;;;12.20;97.30;;;;;;5052738;28;20180;-87
2024/02/09 17:15:26;;;;;;;6.43;1.83;;;12.10;97.30;;;;;;5053036;28;20430;-87
2024/02/09 17:17:52;;;;;;;1.53;1.43;;;12.10;97.30;;;;;;5053196;28;20537;-86
2024/02/09 17:20:17;;;;;;;1.30;1.20;;;12.10;97.30;;;;;;5052904;28;20258;-88
2024/02/09 17:22:43;;;;;;;1.47;1.37;;;12.10;97.30;;;;;;5054124;28;20214;-87
2024/02/09 17:25:08;;;;;;;1.50;1.40;;;12.10;97.30;;;;;;5052911;28;20263;-87
2024/02/09 17:27:34;;;;;;;1.73;1.10;;;12.10;97.30;;;;;;5052697;28;20176;-87
2024/02/09 17:29:59;;;;;;;1.20;1.10;;;12.10;97.30;;;;;;5052671;28;20188;-87
2024/02/09 17:32:26;;;;;;;1.53;1.30;;;12.10;97.30;;;;;;5054275;28;20180;-87
2024/02/09 17:34:51;;;;;;;2.33;1.60;;;12.10;97.30;;;;;;5051979;28;20261;-87
2024/02/09 17:37:18;;;;;;;17.90;2.10;;;12.00;97.30;;;;;;5052498;28;20496;-87
2024/02/09 17:39:44;;;;;;;1.10;1.00;;;12.00;97.30;;;;;;5052370;28;20183;-88
2024/02/09 17:42:09;;;;;;;8.20;3.03;;;12.00;97.30;;;;;;5052440;28;20465;-88
2024/02/09 17:44:35;;;;;;;2.23;1.53;;;12.00;97.30;;;;;;5051939;28;20414;-87
2024/02/09 17:47:03;;;;;;;2.10;1.37;;;12.00;97.30;;;;;;5065032;28;20195;-87
2024/02/09 17:49:29;;;;;;;1.70;1.40;;;12.00;97.30;;;;;;5055439;28;20168;-86
2024/02/09 17:51:55;;;;;;;2.00;1.10;;;12.00;97.30;;;;;;5061034;28;20435;-87